»·PEaware :: N172SP L45-KSBP

N172SP :: L45-KSBP

FLIGHT INFORMATION

Flight Status: Arrived
Operator: Privately registered:
United States
More flights under this callsign
Pilot: Alexander M. (19327)
Aircraft: CESSNA 172 SKYHAWK
(C172)
More flights by this aircraft type
Origin: L45 Bakersfield Mun
United States
Destination: KSBP San Luis Co Regl
United States
More flights between these airports :: More routes between these airports
Route: DCT
File this flight plan on PilotEdge
Remarks: First flight on stream! twitch.tv / allaboutflight
Altitude:
(Current/Filed)
8,500ft
Speed:
(Current/Filed)
125kts
Departed: 08-Oct-18 04:35 PM
Arrived: 08-Oct-18 05:29 PM
Distance/Time
Traveled:
81nm/0:54
Distance/Time
To Go:
Arrived

Flight Plot

Page will automatically refresh every two minutes.

Flight plan parsing failed; only flown route is shown


Map Options




Map Legend


Flown Route
Filed Route
Departure Airport
Arrival Airport
Navaid (VOR, NDB)
Fix

Horizontal Profiles

Position Reports

Time Latitude Longitude Heading Altitude Ground
Speed
08-Oct-18 16:30 35.328512 -118.997853 180 381ft 0kts
08-Oct-18 16:31 35.328512 -118.997853 180 381ft 0kts
08-Oct-18 16:32 35.328406 -118.997818 133 381ft 3kts
08-Oct-18 16:33 35.326101 -118.997261 174 381ft 13kts
08-Oct-18 16:34 35.322991 -118.996614 175 381ft 14kts
08-Oct-18 16:35 35.319413 -118.996134 117 378ft 0kts
08-Oct-18 16:36 35.319597 -118.995397 355 378ft 0kts
08-Oct-18 16:37 35.332625 -118.996872 346 739ft 67kts
08-Oct-18 16:38 35.342973 -119.009112 255 1622ft 70kts
08-Oct-18 16:39 35.337226 -119.032208 271 2483ft 72kts
08-Oct-18 16:40 35.337622 -119.056412 266 3313ft 74kts
08-Oct-18 16:41 35.334620 -119.079614 266 4106ft 72kts
08-Oct-18 16:42 35.332932 -119.104552 272 4859ft 74kts
08-Oct-18 16:43 35.333080 -119.130037 270 5569ft 78kts
08-Oct-18 16:44 35.328801 -119.155101 257 6242ft 80kts
08-Oct-18 16:45 35.326740 -119.181561 265 6891ft 79kts
08-Oct-18 16:46 35.322594 -119.208113 261 7483ft 81kts
08-Oct-18 16:47 35.318952 -119.235460 265 8044ft 84kts
08-Oct-18 16:48 35.314884 -119.263877 267 8492ft 96kts
08-Oct-18 16:49 35.311031 -119.298964 268 8601ft 106kts
08-Oct-18 16:50 35.307923 -119.334877 269 8513ft 110kts
08-Oct-18 16:51 35.303011 -119.372040 262 8513ft 112kts
08-Oct-18 16:52 35.299266 -119.409742 265 8582ft 115kts
08-Oct-18 16:53 35.299489 -119.447609 274 8623ft 112kts
08-Oct-18 16:54 35.299895 -119.486395 274 8552ft 116kts
08-Oct-18 16:55 35.300285 -119.525529 274 8475ft 111kts
08-Oct-18 16:56 35.298435 -119.563704 271 8411ft 112kts
08-Oct-18 16:57 35.296100 -119.601031 269 8459ft 109kts
08-Oct-18 16:58 35.293091 -119.638175 267 8549ft 108kts
08-Oct-18 16:59 35.289238 -119.673734 272 8609ft 108kts
08-Oct-18 17:00 35.287583 -119.711083 270 8558ft 111kts
08-Oct-18 17:01 35.284731 -119.748727 269 8475ft 112kts
08-Oct-18 17:02 35.282042 -119.786002 268 8502ft 104kts
08-Oct-18 17:03 35.278812 -119.822031 271 8467ft 106kts
08-Oct-18 17:04 35.277471 -119.857774 272 8470ft 105kts
08-Oct-18 17:05 35.277930 -119.893359 271 8464ft 105kts
08-Oct-18 17:06 35.275046 -119.925126 265 8493ft 105kts
08-Oct-18 17:07 35.272222 -119.960494 271 8529ft 104kts
08-Oct-18 17:08 35.270653 -119.996074 271 8564ft 104kts
08-Oct-18 17:09 35.268528 -120.031884 270 8567ft 106kts
08-Oct-18 17:10 35.266613 -120.068090 270 8571ft 106kts
08-Oct-18 17:11 35.265333 -120.103719 275 8577ft 105kts
08-Oct-18 17:12 35.263292 -120.139942 265 8582ft 107kts
08-Oct-18 17:13 35.261370 -120.176188 271 8592ft 106kts
08-Oct-18 17:14 35.258101 -120.212235 264 8593ft 107kts
08-Oct-18 17:15 35.253955 -120.247962 270 8371ft 104kts
08-Oct-18 17:16 35.252309 -120.281520 275 7405ft 96kts
08-Oct-18 17:17 35.252579 -120.313498 276 6806ft 93kts
08-Oct-18 17:18 35.252449 -120.345682 274 6410ft 93kts
08-Oct-18 17:19 35.250577 -120.377408 261 6028ft 96kts
08-Oct-18 17:20 35.243656 -120.408557 259 5670ft 95kts
08-Oct-18 17:21 35.237656 -120.439453 264 5260ft 94kts
08-Oct-18 17:22 35.232308 -120.470904 269 4587ft 92kts
08-Oct-18 17:23 35.230735 -120.501771 273 3852ft 90kts
08-Oct-18 17:24 35.232596 -120.531761 284 3100ft 87kts
08-Oct-18 17:25 35.226496 -120.558342 218 2192ft 100kts
08-Oct-18 17:26 35.208578 -120.567678 267 1704ft 53kts
08-Oct-18 17:27 35.208213 -120.586105 289 1464ft 53kts
08-Oct-18 17:28 35.215089 -120.601842 304 1191ft 52kts
08-Oct-18 17:29 35.223347 -120.616341 305 723ft 51kts
08-Oct-18 17:30 35.231607 -120.630745 304 308ft 51kts
08-Oct-18 17:31 35.235432 -120.635965 44 206ft 8kts
08-Oct-18 17:32 35.237905 -120.637474 359 202ft 6kts
08-Oct-18 17:33 35.238123 -120.637699 271 201ft 0kts
08-Oct-18 17:34 35.238123 -120.637699 271 201ft 0kts
08-Oct-18 17:35 35.238123 -120.637699 271 201ft 0kts

Navigation Log

Ident Type
Flight plan parsing failed, navigation log unavailable